Flight Track Log - Related Links

Times and Time Zones

All times are in EDT time to prevent confusion due to time zone crossing. See the SWA525 flight status page for this flight to view local times or setup timezone preferences in your user account.

Time Position Orientation Groundspeed Altitude Reporting Facility
EDT Latitude Longitude Course Direction KTS MPH feet Rate Location/Type
Thu 08:35:13 PM 28.3333 -81.3500 201° Southwest 244 281 4,200  Level Orlando TRACON
Thu 08:36:25 PM 28.3500 -81.4500 281° West 265 305 7,700 2,842 Climbing Orlando TRACON
Thu 08:37:07 PM 28.3667 -81.5167 286° West 279 321 9,600 2,041 Climbing Orlando TRACON
Thu 08:38:52 PM 28.3969 -81.6914 281° West 343 395 12,700 2,145 Climbing Jacksonville Center
Thu 08:39:52 PM 28.4186 -81.7928 284° West 359 413 15,500 2,350 Climbing Jacksonville Center
Thu 08:40:52 PM 28.4486 -81.9056 287° West 369 425 17,400 1,900 Climbing Jacksonville Center
Thu 08:41:52 PM 28.4706 -82.0283 282° West 381 438 19,300 1,900 Climbing Jacksonville Center
Thu 08:42:52 PM 28.4797 -82.1628 274° West 387 445 21,200 1,800 Climbing Jacksonville Center
Thu 08:43:52 PM 28.4886 -82.2903 275° West 400 460 22,900 1,800 Climbing Jacksonville Center
Thu 08:44:52 PM 28.4997 -82.4200 276° West 410 472 24,800 1,700 Climbing Jacksonville Center
Thu 08:45:52 PM 28.5314 -82.5406 287° West 397 457 26,300 1,800 Climbing Jacksonville Center
Thu 08:46:52 PM 28.6358 -82.6039 332° Northwest 377 434 28,400 2,350 Climbing Jacksonville Center
Thu 08:47:52 PM 28.7194 -82.6631 328° Northwest 384 442 31,000 2,150 Climbing Jacksonville Center
Thu 08:48:52 PM 28.8072 -82.7267 328° Northwest 384 442 32,700 1,300 Climbing Jacksonville Center
Thu 08:49:52 PM 28.8950 -82.7906 327° Northwest 379 436 33,600 1,050 Climbing Jacksonville Center
Thu 08:50:52 PM 28.9806 -82.8547 327° Northwest 374 430 34,800 1,100 Climbing Jacksonville Center
Thu 08:51:52 PM 29.0683 -82.9186 328° Northwest 374 430 35,800 600 Climbing Jacksonville Center
Thu 08:52:52 PM 29.1558 -82.9831 327° Northwest 374 430 36,000 100 Climbing Jacksonville Center
Thu 08:53:52 PM 29.2433 -83.0472 327° Northwest 374 430 36,000  Level Jacksonville Center
Thu 08:54:52 PM 29.3311 -83.1117 327° Northwest 374 430 36,000  Level Jacksonville Center
Thu 08:55:52 PM 29.4206 -83.1786 327° Northwest 374 430 36,000  Level Jacksonville Center
Thu 08:56:52 PM 29.5206 -83.2531 327° Northwest 383 441 36,000  Level Jacksonville Center
Thu 08:57:52 PM 29.6061 -83.3153 328° Northwest 378 435 36,000  Level Jacksonville Center
Thu 08:58:52 PM 29.6956 -83.3803 328° Northwest 378 435 36,000  Level Jacksonville Center
Thu 08:59:52 PM 29.7850 -83.4478 327° Northwest 378 435 36,000  Level Jacksonville Center
Thu 09:00:52 PM 29.8706 -83.5106 328° Northwest 378 435 36,000  Level Jacksonville Center
Thu 09:01:52 PM 29.9600 -83.5733 329° Northwest 378 435 36,000  Level Jacksonville Center
Thu 09:02:52 PM 30.0472 -83.6411 326° Northwest 378 435 36,000  Level Jacksonville Center
Thu 09:03:52 PM 30.1367 -83.7092 327° Northwest 378 435 36,000  Level Jacksonville Center
Thu 09:04:52 PM 30.2239 -83.7725 328° Northwest 378 435 36,000  Level Jacksonville Center
Thu 09:05:52 PM 30.3153 -83.8406 327° Northwest 378 435 36,000  Level Jacksonville Center
Thu 09:06:52 PM 30.4025 -83.9064 327° Northwest 378 435 36,000  Level Jacksonville Center
Thu 09:07:52 PM 30.4936 -83.9750 327° Northwest 383 441 36,000  Level Jacksonville Center
Thu 09:08:52 PM 30.5786 -84.0411 326° Northwest 378 435 36,000  Level Jacksonville Center
Thu 09:09:52 PM 30.6678 -84.1097 327° Northwest 378 435 36,000  Level Jacksonville Center
Thu 09:10:52 PM 30.7550 -84.1761 327° Northwest 378 435 36,000  Level Jacksonville Center
Thu 09:11:52 PM 30.8439 -84.2428 327° Northwest 378 435 36,000  Level Jacksonville Center
Thu 09:12:52 PM 30.9308 -84.3117 326° Northwest 378 435 36,000  Level Jacksonville Center
Thu 09:13:52 PM 31.0200 -84.3786 327° Northwest 378 435 36,000  Level Jacksonville Center
Thu 09:16:05 PM 31.2156 -84.5294 327° Northwest 378 435 36,000  Level Atlanta Center
Thu 09:17:05 PM 31.3008 -84.5953 327° Northwest 378 435 36,000  Level Atlanta Center
Thu 09:18:05 PM 31.3881 -84.6617 327° Northwest 378 435 36,000  Level Atlanta Center
Thu 09:19:05 PM 31.4756 -84.7303 326° Northwest 378 435 36,000  Level Atlanta Center
Thu 09:20:05 PM 31.5606 -84.7944 327° Northwest 378 435 36,000  Level Atlanta Center
Thu 09:21:05 PM 31.6458 -84.8633 325° Northwest 378 435 36,000  Level Atlanta Center
Thu 09:22:05 PM 31.7350 -84.9300 328° Northwest 378 435 36,000  Level Atlanta Center
Thu 09:23:05 PM 31.8200 -84.9994 325° Northwest 378 435 36,000  Level Atlanta Center
Thu 09:24:05 PM 31.9053 -85.0639 327° Northwest 378 435 36,000  Level Atlanta Center
Thu 09:25:05 PM 31.9922 -85.1336 326° Northwest 378 435 36,000  Level Atlanta Center
Thu 09:26:05 PM 32.0689 -85.1908 328° Northwest 373 429 36,000  Level Atlanta Center
Thu 09:27:05 PM 32.1558 -85.2581 327° Northwest 373 429 36,000  Level Atlanta Center
Thu 09:28:05 PM 32.2431 -85.3256 327° Northwest 373 429 36,000  Level Atlanta Center
Thu 09:29:05 PM 32.3278 -85.3933 326° Northwest 373 429 36,000  Level Atlanta Center
Thu 09:30:05 PM 32.4125 -85.4608 326° Northwest 373 429 36,000  Level Atlanta Center
Thu 09:31:05 PM 32.5078 -85.5364 326° Northwest 373 429 36,000  Level Atlanta Center
Thu 09:32:05 PM 32.5944 -85.6069 326° Northwest 373 429 36,000  Level Atlanta Center
Thu 09:33:05 PM 32.6792 -85.6725 327° Northwest 373 429 36,000  Level Atlanta Center
Thu 09:34:05 PM 32.7658 -85.7433 326° Northwest 373 429 36,000  Level Atlanta Center
Thu 09:35:05 PM 32.8506 -85.8092 327° Northwest 373 429 36,000  Level Atlanta Center
Thu 09:36:05 PM 32.9353 -85.8778 326° Northwest 373 429 36,000  Level Atlanta Center
Thu 09:37:05 PM 33.0178 -85.9439 326° Northwest 373 429 36,000  Level Atlanta Center
Thu 09:38:05 PM 33.1000 -86.0128 325° Northwest 368 423 36,000  Level Atlanta Center
Thu 09:39:05 PM 33.1847 -86.0767 328° Northwest 362 417 36,000  Level Atlanta Center
Thu 09:40:05 PM 33.2689 -86.1506 324° Northwest 367 422 36,000  Level Atlanta Center
Thu 09:41:05 PM 33.3514 -86.2172 326° Northwest 367 422 36,000  Level Atlanta Center
Thu 09:42:05 PM 33.4356 -86.2842 326° Northwest 367 422 36,000  Level Atlanta Center
Thu 09:43:05 PM 33.5200 -86.3561 325° Northwest 367 422 36,000  Level Atlanta Center
Thu 09:44:05 PM 33.5897 -86.4128 326° Northwest 367 422 36,000  Level Atlanta Center
Thu 09:45:05 PM 33.6739 -86.4825 325° Northwest 362 417 36,000  Level Atlanta Center
Thu 09:46:05 PM 33.7583 -86.5500 326° Northwest 362 417 36,000  Level Atlanta Center
Thu 09:48:21 PM 33.9544 -86.7186 325° Northwest 367 422 36,000  Level Memphis Center
Thu 09:49:21 PM 34.0378 -86.7853 326° Northwest 362 417 36,000  Level Memphis Center
Thu 09:50:21 PM 34.1233 -86.8544 326° Northwest 362 417 36,000  Level Memphis Center
Thu 09:51:21 PM 34.2044 -86.9267 324° Northwest 370 426 36,000  Level Memphis Center
Thu 09:52:21 PM 34.2858 -86.9961 325° Northwest 363 418 36,000  Level Memphis Center
Thu 09:53:21 PM 34.3625 -87.0561 327° Northwest 363 418 36,000  Level Memphis Center
Thu 09:54:21 PM 34.4414 -87.1236 325° Northwest 363 418 36,000  Level Memphis Center
Thu 09:55:21 PM 34.5228 -87.1986 323° Northwest 363 418 36,000  Level Memphis Center
Thu 09:56:21 PM 34.6036 -87.2636 327° Northwest 363 418 36,000  Level Memphis Center
Thu 09:57:21 PM 34.6844 -87.3314 325° Northwest 358 412 36,000  Level Memphis Center
Thu 09:58:21 PM 34.7656 -87.3994 325° Northwest 353 406 36,000  Level Memphis Center
Thu 09:59:21 PM 34.8508 -87.4747 324° Northwest 358 412 36,000  Level Memphis Center
Thu 10:00:21 PM 34.9317 -87.5431 325° Northwest 353 406 36,000  Level Memphis Center
Thu 10:01:21 PM 35.0122 -87.6111 325° Northwest 358 412 36,000  Level Memphis Center
Thu 10:02:21 PM 35.0911 -87.6797 325° Northwest 358 412 36,000  Level Memphis Center
Thu 10:03:21 PM 35.1675 -87.7383 328° Northwest 352 405 36,000  Level Memphis Center
Thu 10:04:21 PM 35.2461 -87.8069 325° Northwest 357 411 36,000  Level Memphis Center
Thu 10:05:21 PM 35.3247 -87.8783 323° Northwest 357 411 36,000  Level Memphis Center
Thu 10:06:21 PM 35.4075 -87.9550 323° Northwest 352 405 36,000  Level Memphis Center
Thu 10:07:21 PM 35.4817 -88.0139 327° Northwest 347 399 36,000  Level Memphis Center
Thu 10:08:21 PM 35.5581 -88.0833 324° Northwest 347 399 36,000  Level Memphis Center
Thu 10:09:21 PM 35.6467 -88.1497 329° Northwest 347 399 36,000  Level Memphis Center
Thu 10:10:21 PM 35.7253 -88.2192 324° Northwest 342 394 36,000  Level Memphis Center
Thu 10:11:21 PM 35.8014 -88.2889 323° Northwest 342 394 36,000 -450 Level Memphis Center
Thu 10:12:21 PM 35.8797 -88.3561 325° Northwest 342 394 35,100 -500 Descending Memphis Center
Thu 10:13:21 PM 35.9558 -88.4261 323° Northwest 347 399 35,000 -50 Descending Memphis Center
Thu 10:14:21 PM 36.0361 -88.4933 326° Northwest 347 399 35,000  Level Memphis Center
Thu 10:15:21 PM 36.1142 -88.5636 324° Northwest 347 399 35,000  Level Memphis Center
Thu 10:16:21 PM 36.1925 -88.6339 324° Northwest 347 399 35,000 -350 Level Memphis Center
Thu 10:17:21 PM 36.2728 -88.7069 324° Northwest 347 399 34,300 -496 Descending Memphis Center
Thu 10:18:22 PM 36.3508 -88.7775 324° Northwest 347 399 34,000 -150 Descending Memphis Center
Thu 10:19:21 PM 36.4286 -88.8456 325° Northwest 347 399 34,000  Level Memphis Center
Thu 10:20:21 PM 36.5089 -88.9189 324° Northwest 352 405 34,000  Level Memphis Center
Thu 10:21:21 PM 36.5889 -88.9872 326° Northwest 352 405 34,000  Level Memphis Center
Thu 10:22:21 PM 36.6689 -89.0636 323° Northwest 352 405 34,000  Level Memphis Center
Thu 10:23:21 PM 36.7425 -89.1297 324° Northwest 352 405 34,000  Level Memphis Center
Thu 10:25:06 PM 36.8808 -89.2547 324° Northwest 345 397 34,000  Level Kansas City Center
Thu 10:26:06 PM 36.9578 -89.3244 324° Northwest 343 395 34,000 -639 Level Kansas City Center
Thu 10:27:08 PM 37.0356 -89.3956 324° Northwest 346 398 32,700 -2,262 Descending Kansas City Center
Thu 10:28:08 PM 37.1133 -89.4681 323° Northwest 348 400 29,400 -2,975 Descending Kansas City Center
Thu 10:29:09 PM 37.1975 -89.5439 324° Northwest 364 419 26,700 -1,632 Descending Kansas City Center
Thu 10:30:13 PM 37.2892 -89.6103 330° Northwest 377 434 26,000 -336 Descending Kansas City Center
Thu 10:31:14 PM 37.3858 -89.6592 338° Northwest 375 432 26,000  Level Kansas City Center
Thu 10:32:15 PM 37.4861 -89.7136 337° Northwest 388 447 26,000 -347 Level Kansas City Center
Thu 10:33:15 PM 37.5931 -89.7719 337° Northwest 394 453 25,300 -1,500 Descending Kansas City Center
Thu 10:34:19 PM 37.6875 -89.8256 336° Northwest 372 428 22,900 -2,226 Descending Kansas City Center
Thu 10:35:19 PM 37.7767 -89.8750 336° Northwest 353 406 20,700 -2,281 Descending Kansas City Center
Thu 10:36:20 PM 37.8761 -89.9286 337° Northwest 339 390 18,300 -1,918 Descending Kansas City Center
Thu 10:37:21 PM 37.9644 -89.9742 338° Northwest 341 392 16,800 -2,098 Descending Kansas City Center
Thu 10:38:23 PM 38.0556 -90.0264 336° Northwest 336 387 14,000 -2,390 Descending Kansas City Center
Thu 10:39:24 PM 38.1394 -90.0708 337° Northwest 329 379 11,900 -1,820 Descending Kansas City Center
Thu 10:40:25 PM 38.2264 -90.0792 356° North 312 359 10,300 -984 Descending Kansas City Center
Thu 10:41:26 PM 38.3039 -90.0878 355° North 279 321 9,900 -1,016 Descending Kansas City Center
Thu 10:42:29 PM 38.3839 -90.0967 355° North 268 308 8,200 -1,355 Descending Kansas City Center
Thu 10:43:30 PM 38.4439 -90.1119 349° North 259 298 7,100 -1,707 Descending Kansas City Center
Thu 10:44:32 PM 38.5122 -90.1428 341° North 257 296 4,700 -1,623 Descending Kansas City Center
Thu 10:45:32 PM 38.5814 -90.1792 338° Northwest 260 299 3,800 -744 Descending Kansas City Center
Thu 10:46:33 PM 38.6486 -90.2244 332° Northwest 240 276 3,200 -787 Descending Kansas City Center
Thu 10:47:34 PM 38.6936 -90.2553 332° Northwest 210 242 2,200 -885 Descending Kansas City Center
Thu 10:48:35 PM 38.7181 -90.2975 307° West 175 201 1,400 -780 Descending Kansas City Center
Thu 10:49:37 PM 38.7403 -90.3428 302° West 161 185 600 -774 Descending Kansas City Center
Thu 10:51:00 PM 38.7333 -90.3667 322° Northwest  Level FlightAware Approximate
Thu 10:58:00 PM 38.7487 -90.3700 322° Northwest  Level Estimated

Login

Don't have an account? Register now (free) for customized features, flight alerts, and more!